Time;durP1;ratioP1;P1;durP2;ratioP2;P2;SDS_P1;SDS_P2;PMS_P1;PMS_P2;Temp;Humidity;BMP_temperature;BMP_pressure;BME280_temperature;BME280_humidity;BME280_pressure;Samples;Min_cycle;Max_cycle;Signal;HPM_P1;HPM_P2
2021/07/19 19:40:44;;;;;;;;;;;;;;;;;;2098972;28;1476;-77
2021/07/19 19:41:45;;;;;;;;;;;;;;;;;;2098629;28;807;-77
2021/07/19 19:42:47;;;;;;;;;;;;;;;;;;2097963;28;1293;-76
2021/07/19 19:43:48;;;;;;;;;;;;;;;;;;2097741;28;1353;-75
2021/07/19 19:44:50;;;;;;;;;;;;;;;;;;2098157;28;926;-76
2021/07/19 19:45:51;;;;;;;;;;;;;;;;;;2098758;28;886;-78
2021/07/19 19:46:53;;;;;;;;;;;;;;;;;;2098649;28;884;-77
2021/07/19 19:47:54;;;;;;;;;;;;;;;;;;2098595;28;831;-76
2021/07/19 19:48:55;;;;;;;;;;;;;;;;;;2098568;28;867;-77
2021/07/19 19:49:56;;;;;;;;;;;;;;;;;;2098444;28;1894;-79
2021/07/19 19:50:58;;;;;;;;;;;;;;;;;;2097809;28;1310;-77
2021/07/19 19:51:59;;;;;;;;;;;;;;;;;;2097853;28;934;-77
2021/07/19 19:53:02;;;;;;;;;;;;;;;;;;2098152;28;815;-78
2021/07/19 19:54:03;;;;;;;;;;;;;;;;;;2097532;28;961;-78
2021/07/19 19:55:08;;;;;;;;;;;;;;;;;;2097711;28;794;-79
2021/07/19 19:56:11;;;;;;;;;;;;;;;;;;2097736;28;808;-78
2021/07/19 19:57:13;;;;;;;;;;;;;;;;;;2097684;28;977;-78
2021/07/19 19:58:15;;;;;;;;;;;;;;;;;;2097582;28;902;-79
2021/07/19 19:59:17;;;;;;;;;;;;;;;;;;2097347;28;822;-78
2021/07/19 20:00:18;;;;;;;;;;;;;;;;;;2097616;28;887;-79
2021/07/19 20:01:19;;;;;;;;;;;;;;;;;;2096908;28;1190;-77
2021/07/19 20:02:20;;;;;;;;;;;;;;;;;;2088740;28;1366;-79
2021/07/19 20:03:22;;;;;;;;;;;;;;;;;;2096956;28;883;-79
2021/07/19 20:04:22;;;;;;;;;;;;;;;;;;2097640;28;831;-80
2021/07/19 20:05:24;;;;;;;;;;;;;;;;;;2097683;28;855;-76
2021/07/19 20:06:25;;;;;;;;;;;;;;;;;;2097361;28;903;-78
2021/07/19 20:07:26;;;;;;;;;;;;;;;;;;2097687;28;901;-78
2021/07/19 20:08:27;;;;;;;;;;;;;;;;;;2097722;28;878;-78
2021/07/19 20:09:29;;;;;;;;;;;;;;;;;;2097530;28;1922;-78
2021/07/19 20:10:29;;;;;;;;;;;;;;;;;;2097561;28;905;-77
2021/07/19 20:11:32;;;;;;;;;;;;;;;;;;2097353;28;1022;-79
2021/07/19 20:12:34;;;;;;;;;;;;;;;;;;2098328;28;953;-79
2021/07/19 20:13:35;;;;;;;;;;;;;;;;;;2098123;28;787;-79
2021/07/19 20:14:36;;;;;;;;;;;;;;;;;;2100431;28;956;-78
2021/07/19 20:15:38;;;;;;;;;;;;;;;;;;2100734;28;819;-78
2021/07/19 20:16:39;;;;;;;;;;;;;;;;;;2101592;28;841;-79
2021/07/19 20:17:40;;;;;;;;;;;;;;;;;;2098281;28;803;-80
2021/07/19 20:18:42;;;;;;;;;;;;;;;;;;2098339;28;869;-78
2021/07/19 20:19:43;;;;;;;;;;;;;;;;;;2098099;28;835;-79
2021/07/19 20:20:44;;;;;;;;;;;;;;;;;;2097862;28;786;-78
2021/07/19 20:21:45;;;;;;;;;;;;;;;;;;2097471;28;922;-79
2021/07/19 20:22:47;;;;;;;;;;;;;;;;;;2097557;28;890;-79
2021/07/19 20:23:47;;;;;;;;;;;;;;;;;;2098031;28;918;-80
2021/07/19 20:24:49;;;;;;;;;;;;;;;;;;2098073;28;916;-79
2021/07/19 20:25:50;;;;;;;;;;;;;;;;;;2098018;28;858;-79
2021/07/19 20:26:53;;;;;;;;;;;;;;;;;;2098133;28;779;-79
2021/07/19 20:27:54;;;;;;;;;;;;;;;;;;2097791;28;1184;-80
2021/07/19 20:28:55;;;;;;;;;;;;;;;;;;2097658;28;1248;-79
2021/07/19 20:29:56;;;;;;;;;;;;;;;;;;2097851;28;1981;-79
2021/07/19 20:30:58;;;;;;;;;;;;;;;;;;2098069;28;884;-78
2021/07/19 20:31:58;;;;;;;;;;;;;;;;;;2097929;28;874;-79
2021/07/19 20:33:00;;;;;;;;;;;;;;;;;;2098029;28;953;-81
2021/07/19 20:34:01;;;;;;;;;;;;;;;;;;2097660;28;1132;-79
2021/07/19 20:35:03;;;;;;;;;;;;;;;;;;2097885;28;1351;-79
2021/07/19 20:36:04;;;;;;;;;;;;;;;;;;2093857;28;1209;-79
2021/07/19 20:37:06;;;;;;;;;;;;;;;;;;2097899;28;922;-77
2021/07/19 20:38:06;;;;;;;;;;;;;;;;;;2097940;28;941;-78
2021/07/19 20:39:08;;;;;;;;;;;;;;;;;;2097953;28;828;-78
2021/07/19 20:40:10;;;;;;;;;;;;;;;;;;2097061;28;1475;-77
2021/07/19 20:41:12;;;;;;;;;;;;;;;;;;2094451;28;800;-77
2021/07/19 20:42:14;;;;;;;;;;;;;;;;;;2092541;28;859;-78
2021/07/19 20:43:16;;;;;;;;;;;;;;;;;;2092239;28;819;-77
2021/07/19 20:44:16;;;;;;;;;;;;;;;;;;2092480;28;862;-77
2021/07/19 20:45:19;;;;;;;;;;;;;;;;;;2091820;28;1416;-78
2021/07/19 20:46:20;;;;;;;;;;;;;;;;;;2091960;28;799;-78
2021/07/19 20:47:22;;;;;;;;;;;;;;;;;;2092394;28;898;-79
2021/07/19 20:48:23;;;;;;;;;;;;;;;;;;2092512;28;945;-78
2021/07/19 20:49:24;;;;;;;;;;;;;;;;;;2092389;28;831;-78
2021/07/19 20:50:25;;;;;;;;;;;;;;;;;;2092076;28;1910;-80
2021/07/19 20:51:27;;;;;;;;;;;;;;;;;;2092360;28;870;-77
2021/07/19 20:52:28;;;;;;;;;;;;;;;;;;2092434;28;910;-78
2021/07/19 20:53:31;;;;;;;;;;;;;;;;;;2092346;28;933;-79
2021/07/19 20:54:31;;;;;;;;;;;;;;;;;;2092405;28;823;-80
2021/07/19 20:55:33;;;;;;;;;;;;;;;;;;2092366;28;934;-77
2021/07/19 20:56:34;;;;;;;;;;;;;;;;;;2092375;28;891;-79
2021/07/19 20:57:37;;;;;;;;;;;;;;;;;;2092254;28;938;-79
2021/07/19 20:58:38;;;;;;;;;;;;;;;;;;2092420;28;882;-78
2021/07/19 20:59:40;;;;;;;;;;;;;;;;;;2092329;28;1123;-78
2021/07/19 21:00:40;;;;;;;;;;;;;;;;;;2092288;28;811;-78
2021/07/19 21:01:42;;;;;;;;;;;;;;;;;;2092306;28;899;-78
2021/07/19 21:02:43;;;;;;;;;;;;;;;;;;2092406;28;942;-79
2021/07/19 21:03:47;;;;;;;;;;;;;;;;;;2091585;28;1174;-77
2021/07/19 21:04:48;;;;;;;;;;;;;;;;;;2091815;28;895;-78
2021/07/19 21:05:49;;;;;;;;;;;;;;;;;;2092018;28;902;-80
2021/07/19 21:06:50;;;;;;;;;;;;;;;;;;2092412;28;933;-78
2021/07/19 21:07:52;;;;;;;;;;;;;;;;;;2092300;28;818;-80
2021/07/19 21:08:53;;;;;;;;;;;;;;;;;;2092302;28;825;-80
2021/07/19 21:09:55;;;;;;;;;;;;;;;;;;2092315;28;1971;-79
2021/07/19 21:10:59;;;;;;;;;;;;;;;;;;2092345;28;914;-78
2021/07/19 21:12:03;;;;;;;;;;;;;;;;;;2092351;28;814;-77
2021/07/19 21:13:06;;;;;;;;;;;;;;;;;;2091311;28;1323;-77
2021/07/19 21:14:07;;;;;;;;;;;;;;;;;;2083200;28;1153;-79
2021/07/19 21:15:12;;;;;;;;;;;;;;;;;;2092786;28;795;-78
2021/07/19 21:16:14;;;;;;;;;;;;;;;;;;2094784;28;902;-77
2021/07/19 21:17:16;;;;;;;;;;;;;;;;;;2093733;28;1065;-77
2021/07/19 21:18:16;;;;;;;;;;;;;;;;;;2092260;28;902;-78
2021/07/19 21:19:18;;;;;;;;;;;;;;;;;;2092240;28;930;-78
2021/07/19 21:20:19;;;;;;;;;;;;;;;;;;2092562;28;799;-79
2021/07/19 21:21:21;;;;;;;;;;;;;;;;;;2092544;28;949;-77
2021/07/19 21:22:22;;;;;;;;;;;;;;;;;;2092541;28;815;-77
2021/07/19 21:23:24;;;;;;;;;;;;;;;;;;2092528;28;848;-79
2021/07/19 21:24:24;;;;;;;;;;;;;;;;;;2092468;28;966;-79
2021/07/19 21:25:26;;;;;;;;;;;;;;;;;;2092506;28;862;-78
2021/07/19 21:26:27;;;;;;;;;;;;;;;;;;2092463;28;823;-78
2021/07/19 21:27:29;;;;;;;;;;;;;;;;;;2092483;28;941;-77
2021/07/19 21:28:31;;;;;;;;;;;;;;;;;;2092375;28;951;-77
2021/07/19 21:29:32;;;;;;;;;;;;;;;;;;2092363;28;910;-77
2021/07/19 21:30:33;;;;;;;;;;;;;;;;;;2092304;28;1894;-77
2021/07/19 21:31:35;;;;;;;;;;;;;;;;;;2092384;28;842;-78
2021/07/19 21:32:36;;;;;;;;;;;;;;;;;;2092503;28;841;-79
2021/07/19 21:33:38;;;;;;;;;;;;;;;;;;2092368;28;833;-81
2021/07/19 21:34:38;;;;;;;;;;;;;;;;;;2092330;28;841;-79
2021/07/19 21:35:40;;;;;;;;;;;;;;;;;;2092423;28;914;-77
2021/07/19 21:36:41;;;;;;;;;;;;;;;;;;2092288;28;890;-78
2021/07/19 21:37:43;;;;;;;;;;;;;;;;;;2091598;28;2351;-76
2021/07/19 21:38:44;;;;;;;;;;;;;;;;;;2091700;28;891;-77
2021/07/19 21:39:45;;;;;;;;;;;;;;;;;;2092092;28;1457;-77
2021/07/19 21:40:46;;;;;;;;;;;;;;;;;;2092457;28;862;-77
2021/07/19 21:41:48;;;;;;;;;;;;;;;;;;2092602;28;850;-76
2021/07/19 21:42:49;;;;;;;;;;;;;;;;;;2092515;28;869;-79
2021/07/19 21:43:52;;;;;;;;;;;;;;;;;;2092254;28;811;-77
2021/07/19 21:44:52;;;;;;;;;;;;;;;;;;2092037;28;1437;-76
2021/07/19 21:45:54;;;;;;;;;;;;;;;;;;2092055;28;1295;-79
2021/07/19 21:46:55;;;;;;;;;;;;;;;;;;2091410;28;1453;-81
2021/07/19 21:47:57;;;;;;;;;;;;;;;;;;2091679;28;895;-79
2021/07/19 21:48:57;;;;;;;;;;;;;;;;;;2092016;28;1281;-79
2021/07/19 21:49:59;;;;;;;;;;;;;;;;;;2091986;28;1354;-78
2021/07/19 21:51:01;;;;;;;;;;;;;;;;;;2091996;28;1898;-80
2021/07/19 21:52:02;;;;;;;;;;;;;;;;;;2092266;28;891;-80
2021/07/19 21:53:03;;;;;;;;;;;;;;;;;;2091456;28;791;-79
2021/07/19 21:54:04;;;;;;;;;;;;;;;;;;2091431;28;1194;-79
2021/07/19 21:55:06;;;;;;;;;;;;;;;;;;2091622;28;858;-80
2021/07/19 21:56:08;;;;;;;;;;;;;;;;;;2092171;28;989;-77
2021/07/19 21:57:10;;;;;;;;;;;;;;;;;;2092148;28;922;-79
2021/07/19 21:58:11;;;;;;;;;;;;;;;;;;2092338;28;894;-79
2021/07/19 21:59:14;;;;;;;;;;;;;;;;;;2092192;28;964;-77
2021/07/19 22:00:16;;;;;;;;;;;;;;;;;;2092229;28;838;-78
2021/07/19 22:01:18;;;;;;;;;;;;;;;;;;2092143;28;908;-77
2021/07/19 22:02:19;;;;;;;;;;;;;;;;;;2092097;28;906;-78
2021/07/19 22:03:21;;;;;;;;;;;;;;;;;;2092142;28;902;-78
2021/07/19 22:04:21;;;;;;;;;;;;;;;;;;2092085;28;815;-78
2021/07/19 22:05:23;;;;;;;;;;;;;;;;;;2092198;28;897;-82
2021/07/19 22:06:24;;;;;;;;;;;;;;;;;;2092225;28;926;-80
2021/07/19 22:07:26;;;;;;;;;;;;;;;;;;2092231;28;898;-79
2021/07/19 22:08:27;;;;;;;;;;;;;;;;;;2092184;28;897;-83
2021/07/19 22:09:29;;;;;;;;;;;;;;;;;;2092074;28;786;-80
2021/07/19 22:10:30;;;;;;;;;;;;;;;;;;2092150;28;1972;-79
2021/07/19 22:11:32;;;;;;;;;;;;;;;;;;2092006;28;946;-80
2021/07/19 22:12:33;;;;;;;;;;;;;;;;;;2092044;28;862;-78
2021/07/19 22:13:35;;;;;;;;;;;;;;;;;;2092027;28;851;-77
2021/07/19 22:14:38;;;;;;;;;;;;;;;;;;2092607;28;966;-77
2021/07/19 22:15:40;;;;;;;;;;;;;;;;;;2094051;28;1215;-78
2021/07/19 22:16:40;;;;;;;;;;;;;;;;;;2094525;28;922;-77
2021/07/19 22:17:42;;;;;;;;;;;;;;;;;;2094083;28;854;-77
2021/07/19 22:18:43;;;;;;;;;;;;;;;;;;2092100;28;834;-78
2021/07/19 22:19:45;;;;;;;;;;;;;;;;;;2091922;28;892;-77
2021/07/19 22:20:46;;;;;;;;;;;;;;;;;;2091974;28;869;-77
2021/07/19 22:21:48;;;;;;;;;;;;;;;;;;2092292;28;1028;-77
2021/07/19 22:22:50;;;;;;;;;;;;;;;;;;2091949;28;894;-77
2021/07/19 22:23:52;;;;;;;;;;;;;;;;;;2091902;28;894;-77
2021/07/19 22:24:53;;;;;;;;;;;;;;;;;;2091915;28;834;-77
2021/07/19 22:25:55;;;;;;;;;;;;;;;;;;2091957;28;882;-77
2021/07/19 22:26:56;;;;;;;;;;;;;;;;;;2091946;28;882;-76
2021/07/19 22:27:59;;;;;;;;;;;;;;;;;;2091923;28;884;-77
2021/07/19 22:29:00;;;;;;;;;;;;;;;;;;2091860;28;760;-77
2021/07/19 22:30:04;;;;;;;;;;;;;;;;;;2091914;28;876;-76
2021/07/19 22:31:04;;;;;;;;;;;;;;;;;;2091823;28;2004;-78
2021/07/19 22:32:07;;;;;;;;;;;;;;;;;;2091894;28;877;-79
2021/07/19 22:33:07;;;;;;;;;;;;;;;;;;2091201;28;1195;-78
2021/07/19 22:34:09;;;;;;;;;;;;;;;;;;2091259;28;822;-77
2021/07/19 22:35:11;;;;;;;;;;;;;;;;;;2091867;28;787;-77
2021/07/19 22:36:13;;;;;;;;;;;;;;;;;;2091838;28;899;-76
2021/07/19 22:37:13;;;;;;;;;;;;;;;;;;2091934;28;899;-76
2021/07/19 22:38:15;;;;;;;;;;;;;;;;;;2091582;28;1203;-76
2021/07/19 22:39:16;;;;;;;;;;;;;;;;;;2091854;28;905;-76
2021/07/19 22:40:18;;;;;;;;;;;;;;;;;;2091749;28;1169;-78
2021/07/19 22:41:18;;;;;;;;;;;;;;;;;;2091811;28;842;-76
2021/07/19 22:42:20;;;;;;;;;;;;;;;;;;2091792;28;866;-76
2021/07/19 22:43:21;;;;;;;;;;;;;;;;;;2091769;28;1083;-77
2021/07/19 22:44:23;;;;;;;;;;;;;;;;;;2091901;28;867;-76
2021/07/19 22:45:26;;;;;;;;;;;;;;;;;;2092083;28;827;-76
2021/07/19 22:46:28;;;;;;;;;;;;;;;;;;2092025;28;861;-78
2021/07/19 22:47:28;;;;;;;;;;;;;;;;;;2091895;28;776;-79
2021/07/19 22:48:30;;;;;;;;;;;;;;;;;;2091805;28;898;-77
2021/07/19 22:49:31;;;;;;;;;;;;;;;;;;2091764;28;887;-77
2021/07/19 22:50:33;;;;;;;;;;;;;;;;;;2091632;28;1918;-77
2021/07/19 22:51:33;;;;;;;;;;;;;;;;;;2089067;28;1311;-78
2021/07/19 22:52:35;;;;;;;;;;;;;;;;;;2091767;28;842;-78
2021/07/19 22:53:36;;;;;;;;;;;;;;;;;;2091740;28;859;-79
2021/07/19 22:54:37;;;;;;;;;;;;;;;;;;2091749;28;977;-79
2021/07/19 22:55:38;;;;;;;;;;;;;;;;;;2091699;28;891;-78
2021/07/19 22:56:40;;;;;;;;;;;;;;;;;;2091730;28;934;-78
2021/07/19 22:57:41;;;;;;;;;;;;;;;;;;2091397;28;1597;-76
2021/07/19 22:58:43;;;;;;;;;;;;;;;;;;2091131;28;897;-77
2021/07/19 22:59:43;;;;;;;;;;;;;;;;;;2091680;28;834;-77
2021/07/19 23:00:47;;;;;;;;;;;;;;;;;;2091194;28;1196;-77
2021/07/19 23:01:47;;;;;;;;;;;;;;;;;;2091116;28;1357;-76
2021/07/19 23:02:49;;;;;;;;;;;;;;;;;;2091103;28;1429;-79
2021/07/19 23:03:50;;;;;;;;;;;;;;;;;;2091126;28;1429;-79
2021/07/19 23:04:53;;;;;;;;;;;;;;;;;;2090847;28;1358;-76
2021/07/19 23:05:54;;;;;;;;;;;;;;;;;;2091110;28;1484;-78
2021/07/19 23:06:56;;;;;;;;;;;;;;;;;;2091629;28;876;-76
2021/07/19 23:07:57;;;;;;;;;;;;;;;;;;2091611;28;914;-78
2021/07/19 23:08:59;;;;;;;;;;;;;;;;;;2091663;28;886;-77
2021/07/19 23:10:00;;;;;;;;;;;;;;;;;;2091747;28;838;-77
2021/07/19 23:11:01;;;;;;;;;;;;;;;;;;2091677;28;1910;-76
2021/07/19 23:12:02;;;;;;;;;;;;;;;;;;2091780;28;883;-77
2021/07/19 23:13:05;;;;;;;;;;;;;;;;;;2091794;28;878;-76
2021/07/19 23:14:06;;;;;;;;;;;;;;;;;;2091661;28;938;-76
2021/07/19 23:15:08;;;;;;;;;;;;;;;;;;2091878;28;889;-76
2021/07/19 23:16:10;;;;;;;;;;;;;;;;;;2091664;28;780;-77
2021/07/19 23:17:12;;;;;;;;;;;;;;;;;;2092128;28;918;-76
2021/07/19 23:18:12;;;;;;;;;;;;;;;;;;2091780;28;1204;-77
2021/07/19 23:19:15;;;;;;;;;;;;;;;;;;2092965;28;843;-76
2021/07/19 23:20:17;;;;;;;;;;;;;;;;;;2091493;28;910;-78
2021/07/19 23:21:18;;;;;;;;;;;;;;;;;;2091151;28;780;-78
2021/07/19 23:22:19;;;;;;;;;;;;;;;;;;2091636;28;878;-78
2021/07/19 23:23:21;;;;;;;;;;;;;;;;;;2091690;28;900;-78
2021/07/19 23:24:22;;;;;;;;;;;;;;;;;;2091549;28;845;-76
2021/07/19 23:25:25;;;;;;;;;;;;;;;;;;2091554;28;1020;-77
2021/07/19 23:26:25;;;;;;;;;;;;;;;;;;2090926;28;1187;-79
2021/07/19 23:27:27;;;;;;;;;;;;;;;;;;2090975;28;927;-78
2021/07/19 23:28:28;;;;;;;;;;;;;;;;;;2090892;28;810;-77
2021/07/19 23:29:30;;;;;;;;;;;;;;;;;;2090990;28;981;-78
2021/07/19 23:30:30;;;;;;;;;;;;;;;;;;2091560;28;796;-78
2021/07/19 23:31:34;;;;;;;;;;;;;;;;;;2091596;28;1914;-78
2021/07/19 23:32:35;;;;;;;;;;;;;;;;;;2091519;28;847;-79
2021/07/19 23:33:37;;;;;;;;;;;;;;;;;;2091529;28;776;-80
2021/07/19 23:34:38;;;;;;;;;;;;;;;;;;2091551;28;891;-80
2021/07/19 23:35:40;;;;;;;;;;;;;;;;;;2091569;28;856;-78
2021/07/19 23:36:41;;;;;;;;;;;;;;;;;;2091517;28;862;-77
2021/07/19 23:37:43;;;;;;;;;;;;;;;;;;2090848;28;1196;-77
2021/07/19 23:38:43;;;;;;;;;;;;;;;;;;2090952;28;887;-77
2021/07/19 23:39:45;;;;;;;;;;;;;;;;;;2091288;28;1261;-77
2021/07/19 23:40:47;;;;;;;;;;;;;;;;;;2090987;28;1270;-78
2021/07/19 23:41:47;;;;;;;;;;;;;;;;;;2090907;28;844;-77
2021/07/19 23:42:50;;;;;;;;;;;;;;;;;;2091545;28;914;-77
2021/07/19 23:43:51;;;;;;;;;;;;;;;;;;2091517;28;980;-78
2021/07/19 23:44:52;;;;;;;;;;;;;;;;;;2091510;28;880;-79
2021/07/19 23:45:54;;;;;;;;;;;;;;;;;;2091548;28;908;-77
2021/07/19 23:46:57;;;;;;;;;;;;;;;;;;2091505;28;874;-78
2021/07/19 23:47:59;;;;;;;;;;;;;;;;;;2091476;28;883;-79
2021/07/19 23:48:59;;;;;;;;;;;;;;;;;;2091443;28;945;-79
2021/07/19 23:50:01;;;;;;;;;;;;;;;;;;2091480;28;867;-80
2021/07/19 23:51:02;;;;;;;;;;;;;;;;;;2091418;28;1973;-79
2021/07/19 23:52:03;;;;;;;;;;;;;;;;;;2091624;28;791;-80
2021/07/19 23:53:04;;;;;;;;;;;;;;;;;;2091497;28;906;-79
2021/07/19 23:54:06;;;;;;;;;;;;;;;;;;2091492;28;953;-79
2021/07/19 23:55:08;;;;;;;;;;;;;;;;;;2091496;28;866;-76
2021/07/19 23:56:14;;;;;;;;;;;;;;;;;;2091436;28;918;-78
2021/07/19 23:57:15;;;;;;;;;;;;;;;;;;2091614;28;886;-77
2021/07/19 23:58:17;;;;;;;;;;;;;;;;;;2091454;28;910;-77
2021/07/19 23:59:18;;;;;;;;;;;;;;;;;;2091479;28;837;-76
